To NAV CANADA Home Page Login to a new session Search on AWWS site Feedback and Comments Disclaimer Vers la page française équivalente Tips FAQ What's new on the site To the Forecasts and Observations / NOTAM section To "File a Flight Plan" website Publications and other links Update of the User's profile FIC Telephone Numbers My Weather Data Folder Route Weather Data Regional Weather Data Local Weather Data To the Forecasts and Observations / NOTAM section
Request Generated 08/22/2017 at 01:36:18 UTC . Weather information available at that time is displayed.

METAR/TAF

LYNN LAKE/MB    (show WxCam)

METAR CYYL 220100Z AUTO /////KT 9SM SCT041 BKN049 14/12 A2992 RMK WND
MISG SLP144 DENSITY ALT 1300FT=
METAR CYYL 220000Z AUTO /////KT 9SM BKN060 OVC074 16/10 A2990 RMK WND
MISG SLP139 DENSITY ALT 1600FT=
SPECI CYYL 212325Z AUTO /////KT 9SM FEW027 SCT034 OVC065 14/11 A2990
RMK WND MISG SLP139 DENSITY ALT 1200FT=
SPECI CYYL 212308Z AUTO /////KT 9SM -RA FEW027 BKN034 BKN044 OVC060
14/12 A2990 RMK PRESRR WND MISG SLP138 DENSITY ALT 1300FT=
METAR CYYL 212300Z AUTO /////KT 9SM BKN032 BKN039 OVC060 15/11 A2989
RMK WND MISG SLP134 DENSITY ALT 1500FT=

TAF CYYL 220038Z 2201/2213 30010KT P6SM FEW020 OVC060 TEMPO 2201/2207
5SM -SHRA BR BKN020 OVC030
FM220700 06005KT P6SM SCT006 OVC015 TEMPO 2207/2213 3SM -RA BR
OVC006
RMK FCST BASED ON AUTO OBS. NXT FCST BY 220700Z=
Your time UTC time
Weather data provided by Environment Canada and NAV CANADA